Lindsay, California
Current Conditions -  °F | °C
As of 12:35 AM on Friday 21 Nov 2014 (Local Time) from KPTV Reporting Station
Overcast Overcast  
Wind Chill: 54°   Ceiling: 4800
Heat Index: 54°   Visibility: 1.7mi
Dew Point: 50°   Wind: 0mph
Humidity: 88%   Direction: NA
Pressure: 30.02"   Gusts: NA
Location:  36.2°N, 119.08°W
Report Text: KPTV 210835Z AUTO 00000KT 1 3/4SM SCT032 BKN048 OVC065 12/10 A3002 RMK AO1
Loading
Personal Weather Stations






























Interactive Weather Map New forecast layout! Learn more

10-Day Weather Forecast

Advertisements
Track Severe Weather on mobile